Lady June — WDG4316 — position and weather

sailwx.info

Track history (hours):
 
Tides and Currents Weather Stations Pressure Air Temp Water Temp Dewpoint Dewpoint Depression Visibility Wind Speed Wind Dir Waves Ship Positions

Lady June

Owner: Callais and Sons LLC, Cutoff, LA. More information available from US FCC via Universal Licensing System and Coast Guard Vessel Documentation Center.

Last reported at 2017-Dec-11 15:11 UTC. Time now 2017-Dec-13 13:05 UTC.
Position N 29°46' W 095°05'.

Length 114 m; draft 2.9 m.

Type: Tug. MMSI: 367535270.

Date/timePositionNaut miles runAvg speedWind from/ knotsBaromVisibWave heightAir tempDewpointWater temp
2017-Dec-11 15:11N 29°46' W 095°05'3 7.9
2017-Dec-11 14:47N 29°44' W 095°08'2 5.9
2017-Dec-11 14:30N 29°45' W 095°10'0 0.7
2017-Dec-11 14:00N 29°45' W 095°10'0 0.2
2017-Dec-11 13:30N 29°45' W 095°10'0 0.0
2017-Dec-11 13:00N 29°45' W 095°10'0 0.0
2017-Dec-11 12:31N 29°45' W 095°10'0 0.0
2017-Dec-11 12:00N 29°45' W 095°10'0 0.0
2017-Dec-11 11:30N 29°45' W 095°10'0 0.0
2017-Dec-11 11:00N 29°45' W 095°10'0 0.0
2017-Dec-11 10:30N 29°45' W 095°10'0 0.0
2017-Dec-11 10:00N 29°45' W 095°10'0 0.0
2017-Dec-11 09:30N 29°45' W 095°10'0 0.0
2017-Dec-11 09:00N 29°45' W 095°10'0 0.0
2017-Dec-11 08:27N 29°45' W 095°10'0 0.0
2017-Dec-11 07:58N 29°45' W 095°10'0 0.0
2017-Dec-11 07:30N 29°45' W 095°10'0 0.0
2017-Dec-11 07:00N 29°45' W 095°10'0 0.0
2017-Dec-11 06:30N 29°45' W 095°10'0 0.0
2017-Dec-11 06:00N 29°45' W 095°10'0 0.0
2017-Dec-11 05:30N 29°45' W 095°10'0 0.0
2017-Dec-11 05:00N 29°45' W 095°10'0 0.0
2017-Dec-11 04:30N 29°45' W 095°10'0 0.0
2017-Dec-11 04:00N 29°45' W 095°10'0 0.0
2017-Dec-11 03:30N 29°45' W 095°10'0 0.0
2017-Dec-11 03:00N 29°45' W 095°10'0 0.0
2017-Dec-11 02:30N 29°45' W 095°10'0 0.0
2017-Dec-11 01:52N 29°45' W 095°10'0 0.0
2017-Dec-11 01:19N 29°45' W 095°10'0 0.0
2017-Dec-11 00:48N 29°45' W 095°10'0 0.0
2017-Dec-11 00:25N 29°45' W 095°10'0 0.0
2017-Dec-11 00:00N 29°45' W 095°10'0 0.0
2017-Dec-10 23:21N 29°45' W 095°10'0 0.1
2017-Dec-10 23:00N 29°45' W 095°10'1 1.1
2017-Dec-10 22:24N 29°45' W 095°10'1 1.7
2017-Dec-10 22:00N 29°45' W 095°10'0 0.0
2017-Dec-10 21:30N 29°45' W 095°10'0 0.0
2017-Dec-10 20:58N 29°45' W 095°10'0 0.1
2017-Dec-10 20:00N 29°45' W 095°10'0 0.5
2017-Dec-10 19:30N 29°45' W 095°10'1 2.8
2017-Dec-10 19:00N 29°44' W 095°09'3 5.1
2017-Dec-10 18:24N 29°45' W 095°06'2 3.7
2017-Dec-10 17:57N 29°45' W 095°04'3 5.4
2017-Dec-10 17:26N 29°43' W 095°01'2 5.4
2017-Dec-10 17:00N 29°42' W 094°59'3 6.4
2017-Dec-10 16:30N 29°39' W 094°58'3 6.8
2017-Dec-10 16:00N 29°35' W 094°56'3 6.9
2017-Dec-10 15:30N 29°33' W 094°54'127 2.9
2017-Dec-08 20:00N 28°14' W 096°48'3 4.6
2017-Dec-08 19:27N 28°12' W 096°50'2 4.5
2017-Dec-08 18:59N 28°11' W 096°52'2 4.4
2017-Dec-08 18:29N 28°09' W 096°54'2 4.2
2017-Dec-08 17:59N 28°08' W 096°55'2 4.4
2017-Dec-08 17:30N 28°06' W 096°56'2 4.9
2017-Dec-08 17:00N 28°04' W 096°58'3 5.1
2017-Dec-08 16:30N 28°02' W 096°60'3 5.3
2017-Dec-08 16:00N 27°60' W 097°02'3 5.1
2017-Dec-08 15:29N 27°58' W 097°03'3 5.0
2017-Dec-08 14:59N 27°55' W 097°03'2 4.9
2017-Dec-08 14:29N 27°53' W 097°03'0 0.7
2017-Dec-08 13:59N 27°52' W 097°03'0 0.0
2017-Dec-08 13:29N 27°52' W 097°03'0 0.0
2017-Dec-08 12:59N 27°52' W 097°03'0 0.0
2017-Dec-08 12:30N 27°52' W 097°03'0 0.0
2017-Dec-08 12:00N 27°52' W 097°03'0 0.0
2017-Dec-08 11:30N 27°52' W 097°03'0 0.0
2017-Dec-08 10:59N 27°52' W 097°03'0 0.0
2017-Dec-08 10:29N 27°52' W 097°03'0 0.0
2017-Dec-08 09:59N 27°52' W 097°03'0 0.0
2017-Dec-08 09:29N 27°52' W 097°03'0 0.0
2017-Dec-08 09:00N 27°52' W 097°03'0 0.0
2017-Dec-08 08:30N 27°52' W 097°03'0 0.0
2017-Dec-08 08:00N 27°52' W 097°03'0 0.0
2017-Dec-08 07:29N 27°52' W 097°03'0 0.0
2017-Dec-08 07:01N 27°52' W 097°03'0 0.0
2017-Dec-08 06:30N 27°52' W 097°03'0 0.0
2017-Dec-08 06:00N 27°52' W 097°03'0 0.0
2017-Dec-08 05:29N 27°52' W 097°03'0 0.0
2017-Dec-08 04:59N 27°52' W 097°03'0 0.0
2017-Dec-08 04:29N 27°52' W 097°03'0 0.0
2017-Dec-08 04:00N 27°52' W 097°03'0 0.0
2017-Dec-08 03:30N 27°52' W 097°03'0 0.0
2017-Dec-08 02:59N 27°52' W 097°03'0 0.0
2017-Dec-08 02:29N 27°52' W 097°03'0 0.0
2017-Dec-08 01:59N 27°52' W 097°03'0 0.0
2017-Dec-08 01:29N 27°52' W 097°03'0 0.0
2017-Dec-08 01:00N 27°52' W 097°03'0 0.0
2017-Dec-08 00:30N 27°52' W 097°03'0 0.0
2017-Dec-08 00:00N 27°52' W 097°03'0 0.0
2017-Dec-07 23:29N 27°52' W 097°03'0 0.0
2017-Dec-07 22:59N 27°52' W 097°03'0 0.0
2017-Dec-07 22:30N 27°52' W 097°03'0 0.0
2017-Dec-07 22:00N 27°52' W 097°03'0 0.0
2017-Dec-07 21:29N 27°52' W 097°03'0 0.0
2017-Dec-07 20:59N 27°52' W 097°03'0 0.0
2017-Dec-07 20:31N 27°52' W 097°03'0 0.0
2017-Dec-07 20:00N 27°52' W 097°03'0 0.0
2017-Dec-07 19:30N 27°52' W 097°03'0 0.0
2017-Dec-07 19:00N 27°52' W 097°03'0 0.0
2017-Dec-07 18:29N 27°52' W 097°03'0 0.0
2017-Dec-07 18:01N 27°52' W 097°03'0 0.0
2017-Dec-07 17:30N 27°52' W 097°03'0 0.0
2017-Dec-07 16:59N 27°52' W 097°03'0 0.0
2017-Dec-07 16:29N 27°52' W 097°03'0 0.0
2017-Dec-07 16:01N 27°52' W 097°03'0 0.0
2017-Dec-07 15:30N 27°52' W 097°03'0 0.0
2017-Dec-07 15:00N 27°52' W 097°03'0 0.0
2017-Dec-07 14:30N 27°52' W 097°03'0 0.0
2017-Dec-07 14:00N 27°52' W 097°03'0 0.0
2017-Dec-07 13:29N 27°52' W 097°03'0 0.0
2017-Dec-07 12:59N 27°52' W 097°03'0 0.0
2017-Dec-07 12:29N 27°52' W 097°03'0 0.0
2017-Dec-07 11:59N 27°52' W 097°03'0 0.0
2017-Dec-07 11:30N 27°52' W 097°03'0 0.0
2017-Dec-07 11:00N 27°52' W 097°03'0 0.0
2017-Dec-07 10:30N 27°52' W 097°03'0 0.0
2017-Dec-07 09:59N 27°52' W 097°03'0 0.0
2017-Dec-07 09:29N 27°52' W 097°03'0 0.0
2017-Dec-07 09:01N 27°52' W 097°03'0 0.0
2017-Dec-07 08:30N 27°52' W 097°03'0 0.0
2017-Dec-07 08:00N 27°52' W 097°03'0 0.0
2017-Dec-07 07:30N 27°52' W 097°03'0 0.0
2017-Dec-07 06:59N 27°52' W 097°03'0 0.1
2017-Dec-07 06:29N 27°52' W 097°03'2 3.7
2017-Dec-07 06:00N 27°51' W 097°04'2 4.2
2017-Dec-07 05:30N 27°50' W 097°06'2 4.6
2017-Dec-07 05:00N 27°50' W 097°08'2 4.9
2017-Dec-07 04:30N 27°49' W 097°11'3 5.5
2017-Dec-07 04:00N 27°49' W 097°14'3 6.3
2017-Dec-07 03:29N 27°49' W 097°18'3 6.3
2017-Dec-07 02:59N 27°49' W 097°21'3 6.0
2017-Dec-07 02:27N 27°49' W 097°25'2 4.0
2017-Dec-07 01:56N 27°49' W 097°27'2 4.6
2017-Dec-07 01:27N 27°50' W 097°30'0 0.0
2017-Dec-07 01:00N 27°50' W 097°30'1 0.5
2017-Dec-06 22:40N 27°49' W 097°29'1 6.7
2017-Dec-06 22:29N 27°49' W 097°27'  
2017-Dec-03 00:13N 27°50' W 097°30'0 0.0
2017-Dec-02 23:37N 27°50' W 097°30'0 0.0
2017-Dec-02 23:29N 27°50' W 097°30'1 0.3
2017-Dec-02 19:44N 27°49' W 097°28'0 0.0
2017-Dec-02 19:15N 27°49' W 097°28'0 0.0
2017-Dec-02 18:57N 27°49' W 097°28'0 0.0
2017-Dec-02 18:29N 27°49' W 097°28'0 0.1
2017-Dec-02 17:58N 27°49' W 097°28'0 0.1
2017-Dec-02 17:27N 27°49' W 097°28'0 0.0
2017-Dec-02 16:57N 27°49' W 097°28'0 0.7
2017-Dec-02 16:28N 27°49' W 097°28'2 3.5
2017-Dec-02 15:59N 27°49' W 097°26'0 0.0
2017-Dec-02 15:29N 27°49' W 097°26'0 0.0
2017-Dec-02 14:59N 27°49' W 097°26'0 0.0
2017-Dec-02 14:29N 27°49' W 097°26'2 3.8
2017-Dec-02 13:59N 27°49' W 097°28'0 0.3
2017-Dec-02 13:29N 27°49' W 097°28'0 0.0
2017-Dec-02 13:00N 27°49' W 097°28'0 0.0
2017-Dec-02 12:30N 27°49' W 097°28'0 0.0
2017-Dec-02 12:00N 27°49' W 097°28'0 0.0
2017-Dec-02 11:30N 27°49' W 097°28'0 0.0
2017-Dec-02 11:00N 27°49' W 097°28'0 0.0
2017-Dec-02 10:30N 27°49' W 097°28'0 0.0
2017-Dec-02 10:00N 27°49' W 097°28'0 0.0
2017-Dec-02 09:30N 27°49' W 097°28'0 0.0
2017-Dec-02 08:59N 27°49' W 097°28'0 0.0
2017-Dec-02 08:30N 27°49' W 097°28'0 0.0
2017-Dec-02 07:59N 27°49' W 097°28'0 0.0
2017-Dec-02 07:30N 27°49' W 097°28'0 0.0
2017-Dec-01 22:29N 27°49' W 097°28'0 0.0
2017-Dec-01 21:30N 27°49' W 097°28'0 0.0
2017-Dec-01 20:24N 27°49' W 097°28'0 0.0
2017-Dec-01 19:58N 27°49' W 097°28'0 0.0
2017-Dec-01 19:28N 27°49' W 097°28'0 0.0
2017-Dec-01 18:59N 27°49' W 097°28'0 0.0
2017-Dec-01 18:29N 27°49' W 097°28'0 0.0
2017-Dec-01 17:51N 27°49' W 097°28'0 0.0
2017-Dec-01 17:23N 27°49' W 097°28'2 5.0
2017-Dec-01 17:00N 27°49' W 097°26'0 0.0
2017-Dec-01 16:30N 27°49' W 097°26'  
Track history (hours):
 
Tides and Currents Weather Stations Pressure Air Temp Water Temp Dewpoint Dewpoint Depression Visibility Wind Speed Wind Dir Waves Ship Positions

Lady June

Owner: Callais and Sons LLC, Cutoff, LA. More information available from US FCC via Universal Licensing System and Coast Guard Vessel Documentation Center.

Last reported at 2017-Dec-11 15:11 UTC. Time now 2017-Dec-13 13:05 UTC.
Position N 29°46' W 095°05'.

Length 114 m; draft 2.9 m.

Type: Tug. MMSI: 367535270.

Date/timePositionNaut miles runAvg speedWind from/ knotsBaromVisibWave heightAir tempDewpointWater temp
2017-Dec-11 15:11N 29°46' W 095°05'3 7.9
2017-Dec-11 14:47N 29°44' W 095°08'2 5.9
2017-Dec-11 14:30N 29°45' W 095°10'0 0.7
2017-Dec-11 14:00N 29°45' W 095°10'0 0.2
2017-Dec-11 13:30N 29°45' W 095°10'0 0.0
2017-Dec-11 13:00N 29°45' W 095°10'0 0.0
2017-Dec-11 12:31N 29°45' W 095°10'0 0.0
2017-Dec-11 12:00N 29°45' W 095°10'0 0.0
2017-Dec-11 11:30N 29°45' W 095°10'0 0.0
2017-Dec-11 11:00N 29°45' W 095°10'0 0.0
2017-Dec-11 10:30N 29°45' W 095°10'0 0.0
2017-Dec-11 10:00N 29°45' W 095°10'0 0.0
2017-Dec-11 09:30N 29°45' W 095°10'0 0.0
2017-Dec-11 09:00N 29°45' W 095°10'0 0.0
2017-Dec-11 08:27N 29°45' W 095°10'0 0.0
2017-Dec-11 07:58N 29°45' W 095°10'0 0.0
2017-Dec-11 07:30N 29°45' W 095°10'0 0.0
2017-Dec-11 07:00N 29°45' W 095°10'0 0.0
2017-Dec-11 06:30N 29°45' W 095°10'0 0.0
2017-Dec-11 06:00N 29°45' W 095°10'0 0.0
2017-Dec-11 05:30N 29°45' W 095°10'0 0.0
2017-Dec-11 05:00N 29°45' W 095°10'0 0.0
2017-Dec-11 04:30N 29°45' W 095°10'0 0.0
2017-Dec-11 04:00N 29°45' W 095°10'0 0.0
2017-Dec-11 03:30N 29°45' W 095°10'0 0.0
2017-Dec-11 03:00N 29°45' W 095°10'0 0.0
2017-Dec-11 02:30N 29°45' W 095°10'0 0.0
2017-Dec-11 01:52N 29°45' W 095°10'0 0.0
2017-Dec-11 01:19N 29°45' W 095°10'0 0.0
2017-Dec-11 00:48N 29°45' W 095°10'0 0.0
2017-Dec-11 00:25N 29°45' W 095°10'0 0.0
2017-Dec-11 00:00N 29°45' W 095°10'0 0.0
2017-Dec-10 23:21N 29°45' W 095°10'0 0.1
2017-Dec-10 23:00N 29°45' W 095°10'1 1.1
2017-Dec-10 22:24N 29°45' W 095°10'1 1.7
2017-Dec-10 22:00N 29°45' W 095°10'0 0.0
2017-Dec-10 21:30N 29°45' W 095°10'0 0.0
2017-Dec-10 20:58N 29°45' W 095°10'0 0.1
2017-Dec-10 20:00N 29°45' W 095°10'0 0.5
2017-Dec-10 19:30N 29°45' W 095°10'1 2.8
2017-Dec-10 19:00N 29°44' W 095°09'3 5.1
2017-Dec-10 18:24N 29°45' W 095°06'2 3.7
2017-Dec-10 17:57N 29°45' W 095°04'3 5.4
2017-Dec-10 17:26N 29°43' W 095°01'2 5.4
2017-Dec-10 17:00N 29°42' W 094°59'3 6.4
2017-Dec-10 16:30N 29°39' W 094°58'3 6.8
2017-Dec-10 16:00N 29°35' W 094°56'3 6.9
2017-Dec-10 15:30N 29°33' W 094°54'127 2.9
2017-Dec-08 20:00N 28°14' W 096°48'3 4.6
2017-Dec-08 19:27N 28°12' W 096°50'2 4.5
2017-Dec-08 18:59N 28°11' W 096°52'2 4.4
2017-Dec-08 18:29N 28°09' W 096°54'2 4.2
2017-Dec-08 17:59N 28°08' W 096°55'2 4.4
2017-Dec-08 17:30N 28°06' W 096°56'2 4.9
2017-Dec-08 17:00N 28°04' W 096°58'3 5.1
2017-Dec-08 16:30N 28°02' W 096°60'3 5.3
2017-Dec-08 16:00N 27°60' W 097°02'3 5.1
2017-Dec-08 15:29N 27°58' W 097°03'3 5.0
2017-Dec-08 14:59N 27°55' W 097°03'2 4.9
2017-Dec-08 14:29N 27°53' W 097°03'0 0.7
2017-Dec-08 13:59N 27°52' W 097°03'0 0.0
2017-Dec-08 13:29N 27°52' W 097°03'0 0.0
2017-Dec-08 12:59N 27°52' W 097°03'0 0.0
2017-Dec-08 12:30N 27°52' W 097°03'0 0.0
2017-Dec-08 12:00N 27°52' W 097°03'0 0.0
2017-Dec-08 11:30N 27°52' W 097°03'0 0.0
2017-Dec-08 10:59N 27°52' W 097°03'0 0.0
2017-Dec-08 10:29N 27°52' W 097°03'0 0.0
2017-Dec-08 09:59N 27°52' W 097°03'0 0.0
2017-Dec-08 09:29N 27°52' W 097°03'0 0.0
2017-Dec-08 09:00N 27°52' W 097°03'0 0.0
2017-Dec-08 08:30N 27°52' W 097°03'0 0.0
2017-Dec-08 08:00N 27°52' W 097°03'0 0.0
2017-Dec-08 07:29N 27°52' W 097°03'0 0.0
2017-Dec-08 07:01N 27°52' W 097°03'0 0.0
2017-Dec-08 06:30N 27°52' W 097°03'0 0.0
2017-Dec-08 06:00N 27°52' W 097°03'0 0.0
2017-Dec-08 05:29N 27°52' W 097°03'0 0.0
2017-Dec-08 04:59N 27°52' W 097°03'0 0.0
2017-Dec-08 04:29N 27°52' W 097°03'0 0.0
2017-Dec-08 04:00N 27°52' W 097°03'0 0.0
2017-Dec-08 03:30N 27°52' W 097°03'0 0.0
2017-Dec-08 02:59N 27°52' W 097°03'0 0.0
2017-Dec-08 02:29N 27°52' W 097°03'0 0.0
2017-Dec-08 01:59N 27°52' W 097°03'0 0.0
2017-Dec-08 01:29N 27°52' W 097°03'0 0.0
2017-Dec-08 01:00N 27°52' W 097°03'0 0.0
2017-Dec-08 00:30N 27°52' W 097°03'0 0.0
2017-Dec-08 00:00N 27°52' W 097°03'0 0.0
2017-Dec-07 23:29N 27°52' W 097°03'0 0.0
2017-Dec-07 22:59N 27°52' W 097°03'0 0.0
2017-Dec-07 22:30N 27°52' W 097°03'0 0.0
2017-Dec-07 22:00N 27°52' W 097°03'0 0.0
2017-Dec-07 21:29N 27°52' W 097°03'0 0.0
2017-Dec-07 20:59N 27°52' W 097°03'0 0.0
2017-Dec-07 20:31N 27°52' W 097°03'0 0.0
2017-Dec-07 20:00N 27°52' W 097°03'0 0.0
2017-Dec-07 19:30N 27°52' W 097°03'0 0.0
2017-Dec-07 19:00N 27°52' W 097°03'0 0.0
2017-Dec-07 18:29N 27°52' W 097°03'0 0.0
2017-Dec-07 18:01N 27°52' W 097°03'0 0.0
2017-Dec-07 17:30N 27°52' W 097°03'0 0.0
2017-Dec-07 16:59N 27°52' W 097°03'0 0.0
2017-Dec-07 16:29N 27°52' W 097°03'0 0.0
2017-Dec-07 16:01N 27°52' W 097°03'0 0.0
2017-Dec-07 15:30N 27°52' W 097°03'0 0.0
2017-Dec-07 15:00N 27°52' W 097°03'0 0.0
2017-Dec-07 14:30N 27°52' W 097°03'0 0.0
2017-Dec-07 14:00N 27°52' W 097°03'0 0.0
2017-Dec-07 13:29N 27°52' W 097°03'0 0.0
2017-Dec-07 12:59N 27°52' W 097°03'0 0.0
2017-Dec-07 12:29N 27°52' W 097°03'0 0.0
2017-Dec-07 11:59N 27°52' W 097°03'0 0.0
2017-Dec-07 11:30N 27°52' W 097°03'0 0.0
2017-Dec-07 11:00N 27°52' W 097°03'0 0.0
2017-Dec-07 10:30N 27°52' W 097°03'0 0.0
2017-Dec-07 09:59N 27°52' W 097°03'0 0.0
2017-Dec-07 09:29N 27°52' W 097°03'0 0.0
2017-Dec-07 09:01N 27°52' W 097°03'0 0.0
2017-Dec-07 08:30N 27°52' W 097°03'0 0.0
2017-Dec-07 08:00N 27°52' W 097°03'0 0.0
2017-Dec-07 07:30N 27°52' W 097°03'0 0.0
2017-Dec-07 06:59N 27°52' W 097°03'0 0.1
2017-Dec-07 06:29N 27°52' W 097°03'2 3.7
2017-Dec-07 06:00N 27°51' W 097°04'2 4.2
2017-Dec-07 05:30N 27°50' W 097°06'2 4.6
2017-Dec-07 05:00N 27°50' W 097°08'2 4.9
2017-Dec-07 04:30N 27°49' W 097°11'3 5.5
2017-Dec-07 04:00N 27°49' W 097°14'3 6.3
2017-Dec-07 03:29N 27°49' W 097°18'3 6.3
2017-Dec-07 02:59N 27°49' W 097°21'3 6.0
2017-Dec-07 02:27N 27°49' W 097°25'2 4.0
2017-Dec-07 01:56N 27°49' W 097°27'2 4.6
2017-Dec-07 01:27N 27°50' W 097°30'0 0.0
2017-Dec-07 01:00N 27°50' W 097°30'1 0.5
2017-Dec-06 22:40N 27°49' W 097°29'1 6.7
2017-Dec-06 22:29N 27°49' W 097°27'  
2017-Dec-03 00:13N 27°50' W 097°30'0 0.0
2017-Dec-02 23:37N 27°50' W 097°30'0 0.0
2017-Dec-02 23:29N 27°50' W 097°30'1 0.3
2017-Dec-02 19:44N 27°49' W 097°28'0 0.0
2017-Dec-02 19:15N 27°49' W 097°28'0 0.0
2017-Dec-02 18:57N 27°49' W 097°28'0 0.0
2017-Dec-02 18:29N 27°49' W 097°28'0 0.1
2017-Dec-02 17:58N 27°49' W 097°28'0 0.1
2017-Dec-02 17:27N 27°49' W 097°28'0 0.0
2017-Dec-02 16:57N 27°49' W 097°28'0 0.7
2017-Dec-02 16:28N 27°49' W 097°28'2 3.5
2017-Dec-02 15:59N 27°49' W 097°26'0 0.0
2017-Dec-02 15:29N 27°49' W 097°26'0 0.0
2017-Dec-02 14:59N 27°49' W 097°26'0 0.0
2017-Dec-02 14:29N 27°49' W 097°26'2 3.8
2017-Dec-02 13:59N 27°49' W 097°28'0 0.3
2017-Dec-02 13:29N 27°49' W 097°28'0 0.0
2017-Dec-02 13:00N 27°49' W 097°28'0 0.0
2017-Dec-02 12:30N 27°49' W 097°28'0 0.0
2017-Dec-02 12:00N 27°49' W 097°28'0 0.0
2017-Dec-02 11:30N 27°49' W 097°28'0 0.0
2017-Dec-02 11:00N 27°49' W 097°28'0 0.0
2017-Dec-02 10:30N 27°49' W 097°28'0 0.0
2017-Dec-02 10:00N 27°49' W 097°28'0 0.0
2017-Dec-02 09:30N 27°49' W 097°28'0 0.0
2017-Dec-02 08:59N 27°49' W 097°28'0 0.0
2017-Dec-02 08:30N 27°49' W 097°28'0 0.0
2017-Dec-02 07:59N 27°49' W 097°28'0 0.0
2017-Dec-02 07:30N 27°49' W 097°28'0 0.0
2017-Dec-01 22:29N 27°49' W 097°28'0 0.0
2017-Dec-01 21:30N 27°49' W 097°28'0 0.0
2017-Dec-01 20:24N 27°49' W 097°28'0 0.0
2017-Dec-01 19:58N 27°49' W 097°28'0 0.0
2017-Dec-01 19:28N 27°49' W 097°28'0 0.0
2017-Dec-01 18:59N 27°49' W 097°28'0 0.0
2017-Dec-01 18:29N 27°49' W 097°28'0 0.0
2017-Dec-01 17:51N 27°49' W 097°28'0 0.0
2017-Dec-01 17:23N 27°49' W 097°28'2 5.0
2017-Dec-01 17:00N 27°49' W 097°26'0 0.0
2017-Dec-01 16:30N 27°49' W 097°26'  

Dump ship's entire track history